createdAt,value
2022-10-06T00:01:06.770Z,1.70
2022-10-06T00:03:33.605Z,1.43
2022-10-06T00:06:01.955Z,1.47
2022-10-06T00:08:31.046Z,1.43
2022-10-06T00:10:58.031Z,1.37
2022-10-06T00:13:25.295Z,1.60
2022-10-06T00:15:52.472Z,1.70
2022-10-06T00:18:19.392Z,1.60
2022-10-06T00:20:46.154Z,1.90
2022-10-06T00:23:12.788Z,2.10
2022-10-06T00:25:42.553Z,1.63
2022-10-06T00:28:09.376Z,1.83
2022-10-06T00:30:36.188Z,1.40
2022-10-06T00:33:04.638Z,1.60
2022-10-06T00:35:33.830Z,1.60
2022-10-06T00:38:01.575Z,1.57
2022-10-06T00:40:28.770Z,1.47
2022-10-06T00:42:56.989Z,1.53
2022-10-06T00:45:31.292Z,2.07
2022-10-06T00:48:01.620Z,1.30
2022-10-06T00:50:28.716Z,1.13
2022-10-06T00:52:55.911Z,1.67
2022-10-06T00:55:23.000Z,1.83
2022-10-06T00:57:50.600Z,1.67
2022-10-06T01:00:17.565Z,1.47
2022-10-06T01:02:48.941Z,2.00
2022-10-06T01:05:27.719Z,1.27
2022-10-06T01:07:54.584Z,1.60
2022-10-06T01:10:21.246Z,1.17
2022-10-06T01:12:48.397Z,1.33
2022-10-06T01:15:16.346Z,1.70
2022-10-06T01:17:54.940Z,1.67
2022-10-06T01:20:22.452Z,1.93
2022-10-06T01:22:51.550Z,1.70
2022-10-06T01:25:18.953Z,1.93
2022-10-06T01:27:51.339Z,2.30
2022-10-06T01:30:23.205Z,1.63
2022-10-06T01:32:49.920Z,1.20
2022-10-06T01:35:17.104Z,2.13
2022-10-06T01:37:44.340Z,1.70
2022-10-06T01:40:11.134Z,1.77
2022-10-06T01:42:38.135Z,1.90
2022-10-06T01:45:06.090Z,1.50
2022-10-06T01:47:34.054Z,1.93
2022-10-06T01:50:00.777Z,1.50
2022-10-06T01:52:29.122Z,2.07
2022-10-06T01:54:56.818Z,2.00
2022-10-06T01:57:24.056Z,2.20
2022-10-06T01:59:54.762Z,1.60
2022-10-06T02:02:23.182Z,1.97
2022-10-06T02:04:49.965Z,1.87
2022-10-06T02:07:17.057Z,3.37
2022-10-06T02:09:45.809Z,1.87
2022-10-06T02:12:12.671Z,2.07
2022-10-06T02:14:41.033Z,1.57
2022-10-06T02:17:09.959Z,2.80
2022-10-06T02:19:36.780Z,2.33
2022-10-06T02:22:03.768Z,1.93
2022-10-06T02:24:30.827Z,2.10
2022-10-06T02:26:57.814Z,2.70
2022-10-06T02:29:24.593Z,1.67
2022-10-06T02:31:52.282Z,1.70
2022-10-06T02:34:19.953Z,1.90
2022-10-06T02:36:46.940Z,2.20
2022-10-06T02:39:14.175Z,1.90
2022-10-06T02:41:40.995Z,1.97
2022-10-06T02:44:07.689Z,2.03
2022-10-06T02:46:37.307Z,2.03
2022-10-06T02:49:04.058Z,1.77
2022-10-06T02:51:33.282Z,2.13
2022-10-06T02:54:01.011Z,2.37
2022-10-06T02:56:27.790Z,1.87
2022-10-06T02:58:54.598Z,2.57
2022-10-06T03:01:28.764Z,2.20
2022-10-06T03:03:58.735Z,2.23
2022-10-06T03:06:27.532Z,2.00
2022-10-06T03:09:15.445Z,1.87
2022-10-06T03:11:43.782Z,1.97
2022-10-06T03:14:21.352Z,2.43
2022-10-06T03:16:51.639Z,1.80
2022-10-06T03:19:25.049Z,2.23
2022-10-06T03:21:52.519Z,2.40
2022-10-06T03:24:21.244Z,1.67
2022-10-06T03:26:51.965Z,2.20
2022-10-06T03:29:19.982Z,2.20
2022-10-06T03:31:51.680Z,2.13
2022-10-06T03:34:18.301Z,2.23
2022-10-06T03:36:45.400Z,2.73
2022-10-06T03:39:12.834Z,2.47
2022-10-06T03:41:40.587Z,1.87
2022-10-06T03:44:09.014Z,2.73
2022-10-06T03:46:38.279Z,1.87
2022-10-06T03:49:07.095Z,1.87
2022-10-06T03:51:38.819Z,2.53
2022-10-06T03:54:10.845Z,2.40
2022-10-06T03:56:41.026Z,2.47
2022-10-06T03:59:12.108Z,1.80
2022-10-06T04:01:43.066Z,1.80
2022-10-06T04:04:12.415Z,2.30
2022-10-06T04:06:42.116Z,2.00
2022-10-06T04:09:15.609Z,2.00
2022-10-06T04:11:43.964Z,2.13
2022-10-06T04:14:13.747Z,3.60
2022-10-06T04:16:46.002Z,2.07
2022-10-06T04:19:15.457Z,2.13
2022-10-06T04:21:46.966Z,2.13
2022-10-06T04:24:18.547Z,2.70
2022-10-06T04:26:49.022Z,2.03
2022-10-06T04:29:17.241Z,2.27
2022-10-06T04:31:46.213Z,2.20
2022-10-06T04:34:21.805Z,2.47
2022-10-06T04:36:48.916Z,2.20
2022-10-06T04:39:18.156Z,2.37
2022-10-06T04:41:49.304Z,2.50
2022-10-06T04:44:21.073Z,2.27
2022-10-06T04:46:48.387Z,2.37
2022-10-06T04:49:20.555Z,1.90
2022-10-06T04:51:50.188Z,2.67
2022-10-06T04:54:18.682Z,3.00
2022-10-06T04:56:46.532Z,2.30
2022-10-06T04:59:14.806Z,2.37
2022-10-06T05:01:43.656Z,3.00
2022-10-06T05:04:12.514Z,3.23
2022-10-06T05:06:41.612Z,3.40
2022-10-06T05:09:14.888Z,2.53
2022-10-06T05:11:48.929Z,2.30
2022-10-06T05:14:19.225Z,2.57
2022-10-06T05:16:48.924Z,2.60
2022-10-06T05:19:16.620Z,2.40
2022-10-06T05:21:44.485Z,2.40
2022-10-06T05:24:17.765Z,2.07
2022-10-06T05:26:44.538Z,2.60
2022-10-06T05:29:14.022Z,2.70
2022-10-06T05:31:43.525Z,2.43
2022-10-06T05:34:11.294Z,1.87
2022-10-06T05:36:39.867Z,2.30
2022-10-06T05:39:08.356Z,2.57
2022-10-06T05:41:40.974Z,2.67
2022-10-06T05:44:10.703Z,3.17
2022-10-06T05:46:39.434Z,2.10
2022-10-06T05:49:10.370Z,2.10
2022-10-06T05:51:40.628Z,3.00
2022-10-06T05:54:27.646Z,2.73
2022-10-06T05:56:55.389Z,2.10
2022-10-06T05:59:23.144Z,3.17
2022-10-06T06:01:52.237Z,2.27
2022-10-06T06:04:30.540Z,2.27
2022-10-06T06:06:57.456Z,2.50
2022-10-06T06:09:26.432Z,2.40
2022-10-06T06:11:55.301Z,2.10
2022-10-06T06:14:44.902Z,2.27
2022-10-06T06:17:16.471Z,2.23
2022-10-06T06:19:43.276Z,2.53
2022-10-06T06:22:10.047Z,2.47
2022-10-06T06:24:39.705Z,2.47
2022-10-06T06:27:07.353Z,2.07
2022-10-06T06:29:34.211Z,3.27
2022-10-06T06:32:00.980Z,2.50
2022-10-06T06:34:29.103Z,2.20
2022-10-06T06:37:03.577Z,2.07
2022-10-06T06:39:34.587Z,2.60
2022-10-06T06:42:02.165Z,2.10
2022-10-06T06:44:49.098Z,2.50
2022-10-06T06:47:25.856Z,2.27
2022-10-06T06:49:53.832Z,2.27
2022-10-06T06:52:20.866Z,2.20
2022-10-06T06:54:49.588Z,1.93
2022-10-06T06:57:17.599Z,2.17
2022-10-06T06:59:47.138Z,2.40
2022-10-06T07:02:16.260Z,1.87
2022-10-06T07:04:45.331Z,1.93
2022-10-06T07:07:15.236Z,2.83
2022-10-06T07:09:42.221Z,2.13
2022-10-06T07:12:12.845Z,2.93
2022-10-06T07:15:03.610Z,2.33
2022-10-06T07:17:53.093Z,2.67
2022-10-06T07:20:39.728Z,2.83
2022-10-06T07:23:37.530Z,2.40
2022-10-06T07:26:07.560Z,2.17
2022-10-06T07:28:34.363Z,2.80
2022-10-06T07:31:01.619Z,1.80
2022-10-06T07:33:32.543Z,2.73
2022-10-06T07:36:02.906Z,1.83
2022-10-06T07:38:31.291Z,2.23
2022-10-06T07:41:18.437Z,2.63
2022-10-06T07:43:48.067Z,2.43
2022-10-06T07:46:19.625Z,2.47
2022-10-06T07:49:00.030Z,2.50
2022-10-06T07:51:27.403Z,2.13
2022-10-06T07:53:56.202Z,2.40
2022-10-06T07:56:41.722Z,2.33
2022-10-06T07:59:08.426Z,2.20
2022-10-06T08:01:35.155Z,2.53
2022-10-06T08:04:06.952Z,2.50
2022-10-06T08:06:34.283Z,1.97
2022-10-06T08:09:01.007Z,2.57
2022-10-06T08:11:27.785Z,2.63
2022-10-06T08:13:54.461Z,2.60
2022-10-06T08:16:23.086Z,2.40
2022-10-06T08:18:53.374Z,2.13
2022-10-06T08:21:28.243Z,2.63
2022-10-06T08:23:56.675Z,2.73
2022-10-06T08:26:25.266Z,2.30
2022-10-06T08:28:53.801Z,2.40
2022-10-06T08:31:22.211Z,2.17
2022-10-06T08:33:49.463Z,2.10
2022-10-06T08:36:20.173Z,2.73
2022-10-06T08:38:50.041Z,2.00
2022-10-06T08:41:34.981Z,1.90
2022-10-06T08:44:21.131Z,2.40
2022-10-06T08:46:57.579Z,2.87
2022-10-06T08:49:26.957Z,2.50
2022-10-06T08:52:10.298Z,2.93
2022-10-06T08:54:37.913Z,2.30
2022-10-06T08:57:12.949Z,2.47
2022-10-06T08:59:41.006Z,2.37
2022-10-06T09:02:21.692Z,1.80
2022-10-06T09:04:51.128Z,2.30
2022-10-06T09:07:29.590Z,2.17
2022-10-06T09:10:21.245Z,1.80
2022-10-06T09:13:21.610Z,2.07
2022-10-06T09:16:09.413Z,1.73
2022-10-06T09:19:07.745Z,1.83
2022-10-06T09:21:42.596Z,2.50
2022-10-06T09:24:42.392Z,1.90
2022-10-06T09:27:20.061Z,1.77
2022-10-06T09:29:48.691Z,1.60
2022-10-06T09:32:22.818Z,1.70
2022-10-06T09:34:59.761Z,1.97
2022-10-06T09:37:27.478Z,2.10
2022-10-06T09:39:55.014Z,1.70
2022-10-06T09:42:30.203Z,2.13
2022-10-06T09:45:03.999Z,1.70
2022-10-06T09:47:35.123Z,1.60
2022-10-06T09:50:15.945Z,1.60
2022-10-06T09:52:44.440Z,1.57
2022-10-06T09:55:17.214Z,2.20
2022-10-06T09:57:51.955Z,1.20
2022-10-06T10:00:37.506Z,1.80
2022-10-06T10:03:06.932Z,1.20
2022-10-06T10:05:35.323Z,1.10
2022-10-06T10:08:09.296Z,1.00
2022-10-06T10:10:37.203Z,1.30
2022-10-06T10:13:17.952Z,1.40
2022-10-06T10:16:02.199Z,1.20
2022-10-06T10:18:31.119Z,1.20
2022-10-06T10:21:00.207Z,1.50
2022-10-06T10:23:36.764Z,1.20
2022-10-06T10:26:27.150Z,1.20
2022-10-06T10:29:18.516Z,1.50
2022-10-06T10:32:03.158Z,1.10
2022-10-06T10:34:42.833Z,1.40
2022-10-06T10:37:13.566Z,1.30
2022-10-06T10:39:43.912Z,1.30
2022-10-06T10:42:23.993Z,1.40
2022-10-06T10:44:57.813Z,1.60
2022-10-06T10:47:28.581Z,1.63
2022-10-06T10:50:24.639Z,1.20
2022-10-06T10:52:54.202Z,1.23
2022-10-06T10:55:31.113Z,1.10
2022-10-06T10:58:33.296Z,1.33
2022-10-06T11:01:44.122Z,1.40
2022-10-06T11:04:12.740Z,1.03
2022-10-06T11:06:58.187Z,1.13
2022-10-06T11:09:31.365Z,1.07
2022-10-06T11:12:03.980Z,1.40
2022-10-06T11:14:42.239Z,1.17
2022-10-06T11:17:27.173Z,1.20
2022-10-06T11:20:08.678Z,1.30
2022-10-06T11:22:58.531Z,1.27
2022-10-06T11:25:40.911Z,2.13
2022-10-06T11:28:24.027Z,1.40
2022-10-06T11:31:09.660Z,1.30
2022-10-06T11:33:37.103Z,1.60
2022-10-06T11:36:08.106Z,1.03
2022-10-06T11:38:45.597Z,1.43
2022-10-06T11:41:51.322Z,1.30
2022-10-06T11:44:33.694Z,1.00
2022-10-06T11:47:16.285Z,1.07
2022-10-06T11:49:55.024Z,1.57
2022-10-06T11:52:21.641Z,1.20
2022-10-06T11:55:07.139Z,1.10
2022-10-06T11:57:34.277Z,1.83
2022-10-06T12:00:16.260Z,1.43
2022-10-06T12:02:46.410Z,1.30
2022-10-06T12:05:52.335Z,1.10
2022-10-06T12:08:02.412Z,1.07
2022-10-06T12:10:29.264Z,1.23
2022-10-06T12:17:05.591Z,1.10
2022-10-06T12:19:33.388Z,0.80
2022-10-06T12:22:22.679Z,1.10
2022-10-06T12:25:17.378Z,1.20
2022-10-06T12:27:52.787Z,1.13
2022-10-06T12:30:55.581Z,1.20
2022-10-06T12:33:36.165Z,1.30
2022-10-06T12:36:04.378Z,1.20
2022-10-06T12:38:31.003Z,0.97
2022-10-06T12:40:58.442Z,1.43
2022-10-06T12:43:33.424Z,1.50
2022-10-06T12:46:07.658Z,1.27
2022-10-06T12:48:50.212Z,1.30
2022-10-06T12:51:35.231Z,1.17
2022-10-06T12:54:19.646Z,1.30
2022-10-06T12:57:01.221Z,1.13
2022-10-06T12:59:33.920Z,1.73
2022-10-06T13:02:24.253Z,1.20
2022-10-06T13:05:15.699Z,1.10
2022-10-06T13:08:06.633Z,1.17
2022-10-06T13:10:33.778Z,1.80
2022-10-06T13:13:01.153Z,1.50
2022-10-06T13:18:07.797Z,0.90
2022-10-06T13:20:54.019Z,1.13
2022-10-06T13:23:23.857Z,1.33
2022-10-06T13:25:53.886Z,1.20
2022-10-06T13:28:30.784Z,1.23
2022-10-06T13:31:03.525Z,1.20
2022-10-06T13:33:36.991Z,1.67
2022-10-06T13:36:04.202Z,1.13
2022-10-06T13:38:36.348Z,1.57
2022-10-06T13:41:24.957Z,1.13
2022-10-06T13:43:54.901Z,1.17
2022-10-06T13:46:24.043Z,1.20
2022-10-06T13:48:59.600Z,1.43
2022-10-06T13:51:32.039Z,1.40
2022-10-06T13:54:01.596Z,1.40
2022-10-06T13:56:40.287Z,1.23
2022-10-06T13:59:16.153Z,1.40
2022-10-06T14:01:42.959Z,1.67
2022-10-06T14:04:14.805Z,1.40
2022-10-06T14:06:59.055Z,1.43
2022-10-06T14:09:27.605Z,1.40
2022-10-06T14:12:05.853Z,1.20
2022-10-06T14:14:33.378Z,1.40
2022-10-06T14:17:00.043Z,1.60
2022-10-06T14:19:37.013Z,1.80
2022-10-06T14:22:05.368Z,1.40
2022-10-06T14:24:34.344Z,1.57
2022-10-06T14:27:03.195Z,1.40
2022-10-06T14:29:31.692Z,1.53
2022-10-06T14:32:09.752Z,1.77
2022-10-06T14:34:36.479Z,1.50
2022-10-06T14:37:03.323Z,1.17
2022-10-06T14:39:30.051Z,1.50
2022-10-06T14:41:56.760Z,1.97
2022-10-06T14:44:23.580Z,1.77
2022-10-06T14:46:50.712Z,1.83
2022-10-06T14:49:17.805Z,1.67
2022-10-06T14:51:45.108Z,1.57
2022-10-06T14:54:12.675Z,1.63
2022-10-06T14:56:40.470Z,1.67
2022-10-06T14:59:09.272Z,2.17
2022-10-06T15:01:37.534Z,1.40
2022-10-06T15:04:17.166Z,1.60
2022-10-06T15:07:02.490Z,1.60
2022-10-06T15:09:31.044Z,1.40
2022-10-06T15:11:58.601Z,1.63
2022-10-06T15:14:25.434Z,1.60
2022-10-06T15:16:52.376Z,1.70
2022-10-06T15:19:19.196Z,1.60
2022-10-06T15:21:46.141Z,2.00
2022-10-06T15:24:18.405Z,1.60
2022-10-06T15:27:04.710Z,1.73
2022-10-06T15:29:32.080Z,1.47
2022-10-06T15:32:00.365Z,1.70
2022-10-06T15:34:28.738Z,1.87
2022-10-06T15:36:56.734Z,1.63
2022-10-06T15:39:28.514Z,1.50
2022-10-06T15:41:55.568Z,1.53
2022-10-06T15:44:22.498Z,1.80
2022-10-06T15:46:54.426Z,1.83
2022-10-06T15:49:25.895Z,1.60
2022-10-06T15:51:57.358Z,1.67
2022-10-06T15:54:37.667Z,1.90
2022-10-06T15:57:08.558Z,1.27
2022-10-06T15:59:35.984Z,2.20
2022-10-06T16:02:07.265Z,1.30
2022-10-06T16:04:38.804Z,1.77
2022-10-06T16:07:14.360Z,1.93
2022-10-06T16:09:43.751Z,1.63
2022-10-06T16:12:11.937Z,1.80
2022-10-06T16:14:38.667Z,2.10
2022-10-06T16:17:06.262Z,1.70
2022-10-06T16:19:36.660Z,1.37
2022-10-06T16:22:04.780Z,1.63
2022-10-06T16:24:31.776Z,1.40
2022-10-06T16:27:00.002Z,1.60
2022-10-06T16:29:27.438Z,1.93
2022-10-06T16:31:54.316Z,1.50
2022-10-06T16:34:21.154Z,1.60
2022-10-06T16:36:48.249Z,1.70
2022-10-06T16:39:22.018Z,1.77
2022-10-06T16:41:49.092Z,1.23
2022-10-06T16:44:16.078Z,1.77
2022-10-06T16:46:43.218Z,2.50
2022-10-06T16:49:10.950Z,3.93
2022-10-06T16:51:40.210Z,5.33
2022-10-06T16:54:12.849Z,3.63
2022-10-06T16:56:42.378Z,2.67
2022-10-06T16:59:14.176Z,4.27
2022-10-06T17:01:41.798Z,4.20
2022-10-06T17:04:16.975Z,2.90
2022-10-06T17:06:48.150Z,2.77
2022-10-06T17:09:17.230Z,2.40
2022-10-06T17:11:49.544Z,2.70
2022-10-06T17:14:16.679Z,2.60
2022-10-06T17:16:45.830Z,2.27
2022-10-06T17:19:13.957Z,2.30
2022-10-06T17:21:46.328Z,2.37
2022-10-06T17:24:17.851Z,2.20
2022-10-06T17:26:47.379Z,2.27
2022-10-06T17:29:19.216Z,2.20
2022-10-06T17:31:47.075Z,2.43
2022-10-06T17:34:21.946Z,2.30
2022-10-06T17:36:52.006Z,2.10
2022-10-06T17:39:23.345Z,2.57
2022-10-06T17:41:52.619Z,2.43
2022-10-06T17:44:27.056Z,2.60
2022-10-06T17:46:55.914Z,3.07
2022-10-06T17:49:24.275Z,2.57
2022-10-06T17:51:52.891Z,2.57
2022-10-06T17:54:21.629Z,2.43
2022-10-06T17:56:50.457Z,2.43
2022-10-06T17:59:25.232Z,2.67
2022-10-06T18:01:56.403Z,3.17
2022-10-06T18:04:23.505Z,3.80
2022-10-06T18:06:52.998Z,3.30
2022-10-06T18:09:20.267Z,3.77
2022-10-06T18:11:55.014Z,3.53
2022-10-06T18:14:23.953Z,2.97
2022-10-06T18:16:56.764Z,3.50
2022-10-06T18:19:34.634Z,3.80
2022-10-06T18:22:04.929Z,4.10
2022-10-06T18:24:31.801Z,3.80
2022-10-06T18:27:00.216Z,3.13
2022-10-06T18:29:35.227Z,2.77
2022-10-06T18:32:56.634Z,3.10
2022-10-06T18:37:35.776Z,2.60
2022-10-06T18:40:08.627Z,3.27
2022-10-06T18:42:35.955Z,2.70
2022-10-06T18:45:21.898Z,3.17
2022-10-06T18:48:07.222Z,3.03
2022-10-06T18:50:35.259Z,3.30
2022-10-06T18:53:04.308Z,4.30
2022-10-06T18:55:31.815Z,3.13
2022-10-06T18:57:58.787Z,3.07
2022-10-06T19:00:26.023Z,3.57
2022-10-06T19:02:54.883Z,3.83
2022-10-06T19:05:21.567Z,2.97
2022-10-06T19:07:48.361Z,2.73
2022-10-06T19:10:15.133Z,2.83
2022-10-06T19:12:41.894Z,3.30
2022-10-06T19:15:10.009Z,3.13
2022-10-06T19:17:40.901Z,4.10
2022-10-06T19:20:10.832Z,3.53
2022-10-06T19:22:38.168Z,2.80
2022-10-06T19:25:05.207Z,3.53
2022-10-06T19:27:33.768Z,3.20
2022-10-06T19:30:00.467Z,3.47
2022-10-06T19:32:31.349Z,4.57
2022-10-06T19:34:59.101Z,3.80
2022-10-06T19:37:29.561Z,3.87
2022-10-06T19:39:56.336Z,3.60
2022-10-06T19:42:41.486Z,3.53
2022-10-06T19:45:09.602Z,4.30
2022-10-06T19:47:36.310Z,3.97
2022-10-06T19:50:08.683Z,3.90
2022-10-06T19:52:38.379Z,3.87
2022-10-06T19:55:05.415Z,3.77
2022-10-06T19:57:33.772Z,3.90
2022-10-06T20:00:00.828Z,3.43
2022-10-06T20:02:28.977Z,3.20
2022-10-06T20:04:56.683Z,4.60
2022-10-06T20:07:27.569Z,4.27
2022-10-06T20:09:55.215Z,3.27
2022-10-06T20:12:24.859Z,3.43
2022-10-06T20:14:53.661Z,3.53
2022-10-06T20:17:20.989Z,3.60
2022-10-06T20:19:47.919Z,3.57
2022-10-06T20:22:15.739Z,3.47
2022-10-06T20:24:42.548Z,3.17
2022-10-06T20:27:10.201Z,3.67
2022-10-06T20:29:36.987Z,3.83
2022-10-06T20:32:05.255Z,3.80
2022-10-06T20:34:34.162Z,3.13
2022-10-06T20:37:02.667Z,3.93
2022-10-06T20:39:52.317Z,3.40
2022-10-06T20:42:19.850Z,3.60
2022-10-06T20:44:46.584Z,4.00
2022-10-06T20:47:13.805Z,3.50
2022-10-06T20:49:42.547Z,4.33
2022-10-06T20:52:09.979Z,4.13
2022-10-06T20:54:37.299Z,3.63
2022-10-06T20:57:05.943Z,4.13
2022-10-06T20:59:35.439Z,3.90
2022-10-06T21:02:03.129Z,4.03
2022-10-06T21:04:30.263Z,4.87
2022-10-06T21:06:57.292Z,3.73
2022-10-06T21:09:28.543Z,3.27
2022-10-06T21:11:57.387Z,3.80
2022-10-06T21:14:24.644Z,4.10
2022-10-06T21:16:52.309Z,3.60
2022-10-06T21:19:19.611Z,3.83
2022-10-06T21:21:53.234Z,3.77
2022-10-06T21:24:20.561Z,3.47
2022-10-06T21:26:47.762Z,3.80
2022-10-06T21:29:15.547Z,3.80
2022-10-06T21:31:43.295Z,3.93
2022-10-06T21:34:10.527Z,4.03
2022-10-06T21:36:37.620Z,4.20
2022-10-06T21:39:08.439Z,4.13
2022-10-06T21:41:39.250Z,4.40
2022-10-06T21:44:15.404Z,3.77
2022-10-06T21:46:55.210Z,3.83
2022-10-06T21:49:28.546Z,4.30
2022-10-06T21:52:08.818Z,5.07
2022-10-06T21:54:39.594Z,4.13
2022-10-06T21:57:08.377Z,4.27
2022-10-06T21:59:35.322Z,3.60
2022-10-06T22:02:02.341Z,3.90
2022-10-06T22:04:29.306Z,4.10
2022-10-06T22:06:56.217Z,3.80
2022-10-06T22:09:23.027Z,4.13
2022-10-06T22:11:50.133Z,3.70
2022-10-06T22:14:18.440Z,3.77
2022-10-06T22:16:45.243Z,3.90
2022-10-06T22:19:13.512Z,3.83
2022-10-06T22:21:45.569Z,4.10
2022-10-06T22:24:14.631Z,3.63
2022-10-06T22:26:42.089Z,4.50
2022-10-06T22:29:11.019Z,3.90
2022-10-06T22:31:39.511Z,3.57
2022-10-06T22:34:07.629Z,3.87
2022-10-06T22:36:34.959Z,3.53
2022-10-06T22:39:03.532Z,3.90
2022-10-06T22:41:30.389Z,3.80
2022-10-06T22:43:58.769Z,4.03
2022-10-06T22:46:29.082Z,4.00
2022-10-06T22:48:55.946Z,4.10
2022-10-06T22:51:22.808Z,3.90
2022-10-06T22:53:58.633Z,3.70
2022-10-06T22:56:31.445Z,4.33
2022-10-06T22:59:00.073Z,4.47
2022-10-06T23:01:27.702Z,3.57
2022-10-06T23:03:55.712Z,4.40
2022-10-06T23:06:23.060Z,4.30
2022-10-06T23:08:49.736Z,4.47
2022-10-06T23:11:18.674Z,4.43
2022-10-06T23:13:46.527Z,4.63
2022-10-06T23:16:14.551Z,4.50
2022-10-06T23:18:42.813Z,4.07
2022-10-06T23:21:24.351Z,5.60
2022-10-06T23:23:53.202Z,5.50
2022-10-06T23:26:20.620Z,5.13
2022-10-06T23:28:51.692Z,5.17
2022-10-06T23:31:19.141Z,4.53
2022-10-06T23:33:46.202Z,4.97
2022-10-06T23:36:13.029Z,4.70
2022-10-06T23:38:40.059Z,4.53
2022-10-06T23:41:07.411Z,5.40
2022-10-06T23:43:34.618Z,5.13
2022-10-06T23:46:02.458Z,4.40
2022-10-06T23:48:29.821Z,5.00
2022-10-06T23:51:04.358Z,4.37
2022-10-06T23:53:31.764Z,4.63
2022-10-06T23:55:58.428Z,5.33
2022-10-06T23:58:25.944Z,4.57
